Terminal Aerodrome Forecast
Issued by NWS

Home | Current Version | Previous Version | Text Only | Print | Product List | Glossary On
Versions: 1 2 3 4 5 6 7 8 9 10 11 12 13 14 15 16 17 18 19 20 21 22 23 24 25 26 27 28 29 30 31 32 33 34 35 36 37 38 39 40
000
FTUS41 KBTV 261126
TAFPBG
TAF
KPBG 261126Z 2612/2712 00000KT P6SM SCT250
     FM261800 13005KT P6SM BKN110
     FM262100 15006KT P6SM VCSH OVC070
     FM270000 15009KT P6SM VCSH OVC030
     FM270200 16012G20KT P6SM VCSH OVC050
     FM270900 16013G21KT 3SM -RA BR OVC030=

USA.gov is the U.S. government's official web portal to all federal, state and local government web resources and services.